Time;durP1;ratioP1;P1;durP2;ratioP2;P2;SDS_P1;SDS_P2;PMS_P1;PMS_P2;Temp;Humidity;BMP_temperature;BMP_pressure;BME280_temperature;BME280_humidity;BME280_pressure;Samples;Min_cycle;Max_cycle;Signal;HPM_P1;HPM_P2
2022/07/31 00:01:07;;;;;;;5.80;5.40;;;25.40;64.10;;;;;;5094542;28;20466;-68
2022/07/31 00:03:36;;;;;;;6.90;6.33;;;25.30;64.00;;;;;;5094490;28;20847;-68
2022/07/31 00:06:07;;;;;;;8.63;6.70;;;25.20;63.90;;;;;;5094127;28;20470;-68
2022/07/31 00:08:36;;;;;;;6.13;5.73;;;25.20;64.00;;;;;;5091359;28;20525;-68
2022/07/31 00:11:10;;;;;;;6.97;6.43;;;25.10;64.10;;;;;;5090598;28;20460;-68
2022/07/31 00:13:40;;;;;;;6.33;5.83;;;25.10;64.10;;;;;;5075129;28;20432;-68
2022/07/31 00:16:25;;;;;;;5.23;4.93;;;25.10;64.30;;;;;;5092921;28;20482;-68
2022/07/31 00:18:54;;;;;;;7.10;6.63;;;25.10;64.20;;;;;;5090989;28;20463;-68
2022/07/31 00:21:22;;;;;;;6.63;6.10;;;25.10;64.00;;;;;;5094007;28;20480;-68
2022/07/31 00:23:50;;;;;;;6.87;6.27;;;25.00;64.20;;;;;;5093034;28;20459;-68
2022/07/31 00:26:18;;;;;;;7.03;6.63;;;25.00;64.30;;;;;;5094230;28;20465;-68
2022/07/31 00:28:48;;;;;;;5.87;5.47;;;25.00;64.40;;;;;;5087461;28;20510;-68
2022/07/31 00:31:17;;;;;;;6.33;5.93;;;25.00;64.30;;;;;;5091908;28;20493;-68
2022/07/31 00:33:45;;;;;;;6.13;5.73;;;25.00;64.40;;;;;;5090580;28;20514;-68
2022/07/31 00:36:13;;;;;;;7.37;6.77;;;24.90;64.50;;;;;;5074885;28;20819;-68
2022/07/31 00:38:42;;;;;;;6.87;6.37;;;24.80;64.70;;;;;;5091936;28;20533;-68
2022/07/31 00:41:10;;;;;;;5.77;5.47;;;24.70;64.90;;;;;;5062817;28;20487;-68
2022/07/31 00:43:38;;;;;;;7.03;5.50;;;24.70;65.00;;;;;;5092601;28;20481;-68
2022/07/31 00:46:08;;;;;;;5.20;4.80;;;24.70;65.00;;;;;;5076691;28;20990;-68
2022/07/31 00:48:41;;;;;;;6.57;6.17;;;24.80;64.80;;;;;;5084493;28;21267;-68
2022/07/31 00:51:11;;;;;;;8.17;7.67;;;24.80;64.80;;;;;;5055257;28;20562;-68
2022/07/31 00:53:39;;;;;;;6.97;6.47;;;24.80;64.50;;;;;;5086466;28;20533;-68
2022/07/31 00:56:07;;;;;;;6.33;5.93;;;24.80;64.60;;;;;;5093649;28;20446;-68
2022/07/31 00:58:35;;;;;;;7.77;7.23;;;24.80;64.80;;;;;;5088687;28;20472;-68
2022/07/31 01:01:05;;;;;;;8.23;7.73;;;24.80;64.60;;;;;;5092835;28;20500;-68
2022/07/31 01:03:35;;;;;;;7.37;6.87;;;24.80;64.70;;;;;;5092387;28;20938;-68
2022/07/31 01:06:06;;;;;;;7.63;7.03;;;24.80;64.70;;;;;;5075461;28;20898;-68
2022/07/31 01:08:34;;;;;;;8.03;7.47;;;24.70;64.80;;;;;;5091842;28;20460;-68
2022/07/31 01:11:08;;;;;;;6.10;5.67;;;24.70;64.90;;;;;;5092643;28;20463;-68
2022/07/31 01:13:51;;;;;;;6.87;6.27;;;24.70;65.00;;;;;;5092403;28;20453;-68
2022/07/31 01:16:21;;;;;;;5.53;5.13;;;24.70;65.10;;;;;;5092930;28;20461;-68
2022/07/31 01:18:54;;;;;;;7.10;6.50;;;24.70;64.80;;;;;;5087478;28;20822;-68
2022/07/31 01:21:33;;;;;;;7.53;6.93;;;24.80;64.60;;;;;;5087631;28;20500;-68
2022/07/31 01:24:20;;;;;;;6.60;6.20;;;24.80;64.50;;;;;;5084790;28;20453;-68
2022/07/31 01:27:02;;;;;;;8.73;6.70;;;24.70;64.90;;;;;;5066819;28;20867;-68
2022/07/31 01:29:37;;;;;;;6.90;6.40;;;24.60;65.00;;;;;;5090122;28;20490;-68
2022/07/31 01:32:10;;;;;;;6.50;5.93;;;24.60;65.20;;;;;;5080730;28;20514;-68
2022/07/31 01:34:44;;;;;;;6.90;6.40;;;24.50;65.20;;;;;;5077367;28;20947;-68
2022/07/31 01:37:19;;;;;;;6.13;5.73;;;24.50;65.30;;;;;;5089910;28;20453;-68
2022/07/31 01:39:55;;;;;;;7.60;6.90;;;24.40;65.40;;;;;;5082703;28;20456;-68
2022/07/31 01:42:25;;;;;;;5.33;5.03;;;24.40;65.60;;;;;;5083400;28;20460;-68
2022/07/31 01:44:59;;;;;;;7.80;7.20;;;24.40;65.90;;;;;;5074323;28;20871;-68
2022/07/31 01:47:30;;;;;;;7.00;6.50;;;24.40;65.40;;;;;;5074289;28;20497;-68
2022/07/31 01:50:01;;;;;;;7.47;6.97;;;24.40;65.60;;;;;;5092085;28;20804;-68
2022/07/31 01:52:31;;;;;;;5.80;5.40;;;24.50;65.30;;;;;;5077705;28;20492;-68
2022/07/31 01:55:00;;;;;;;7.07;6.50;;;24.50;65.30;;;;;;5073676;28;20441;-68
2022/07/31 01:57:32;;;;;;;5.97;5.47;;;24.40;65.30;;;;;;5074102;28;20518;-68
2022/07/31 02:00:07;;;;;;;7.03;6.43;;;24.40;65.40;;;;;;5080228;28;20540;-68
2022/07/31 02:02:57;;;;;;;6.17;5.77;;;24.40;65.30;;;;;;5074005;28;20724;-68
2022/07/31 02:05:38;;;;;;;7.00;6.50;;;24.30;65.60;;;;;;5077386;28;20490;-68
2022/07/31 02:08:07;;;;;;;6.53;6.03;;;24.30;65.70;;;;;;5073785;28;20465;-68
2022/07/31 02:10:39;;;;;;;6.20;5.80;;;24.30;65.60;;;;;;5073217;28;20469;-68
2022/07/31 02:13:08;;;;;;;6.20;5.60;;;24.30;65.60;;;;;;5081315;28;20470;-68
2022/07/31 02:15:38;;;;;;;6.43;6.03;;;24.30;65.50;;;;;;5081535;28;20449;-68
2022/07/31 02:18:09;;;;;;;6.30;5.90;;;24.20;65.50;;;;;;5090637;28;20458;-68
2022/07/31 02:20:39;;;;;;;7.37;6.87;;;24.20;65.80;;;;;;5072301;28;20542;-68
2022/07/31 02:23:10;;;;;;;6.10;5.70;;;24.20;65.80;;;;;;5074851;28;20465;-68
2022/07/31 02:25:41;;;;;;;6.23;5.87;;;24.20;65.80;;;;;;5072560;28;20967;-68
2022/07/31 02:28:13;;;;;;;5.77;5.37;;;24.10;65.90;;;;;;5073925;28;20469;-68
2022/07/31 02:30:47;;;;;;;6.80;6.30;;;24.20;65.90;;;;;;5070144;28;20454;-68
2022/07/31 02:33:19;;;;;;;6.97;6.50;;;24.20;65.80;;;;;;5074228;28;20478;-68
2022/07/31 02:35:50;;;;;;;7.47;6.97;;;24.10;65.90;;;;;;5074630;28;20878;-68
2022/07/31 02:38:20;;;;;;;6.20;5.80;;;24.10;66.00;;;;;;5074857;28;20545;-68
2022/07/31 02:40:54;;;;;;;6.47;5.97;;;24.10;66.00;;;;;;5078304;28;20448;-68
2022/07/31 02:43:23;;;;;;;7.03;6.63;;;24.10;65.90;;;;;;5077408;28;20468;-68
2022/07/31 02:45:55;;;;;;;6.77;6.27;;;24.10;65.80;;;;;;5091229;28;20479;-68
2022/07/31 02:48:24;;;;;;;7.00;6.50;;;24.00;66.00;;;;;;5085109;28;20468;-68
2022/07/31 02:50:54;;;;;;;6.83;6.33;;;24.00;65.90;;;;;;5077229;28;20471;-68
2022/07/31 02:53:23;;;;;;;5.70;5.40;;;24.00;66.10;;;;;;5077039;28;20773;-68
2022/07/31 02:55:54;;;;;;;6.97;6.37;;;24.00;66.20;;;;;;5083462;28;20471;-68
2022/07/31 02:58:23;;;;;;;6.87;6.40;;;24.00;65.90;;;;;;5095719;28;20470;-68
2022/07/31 03:01:00;;;;;;;6.70;6.23;;;24.00;65.70;;;;;;5095047;28;20763;-68
2022/07/31 03:03:31;;;;;;;6.67;6.17;;;23.90;65.80;;;;;;5087905;28;20455;-68
2022/07/31 03:05:59;;;;;;;7.30;6.50;;;23.90;66.00;;;;;;5094466;28;20504;-68
2022/07/31 03:08:28;;;;;;;7.97;7.27;;;23.90;66.10;;;;;;5084757;28;20470;-68
2022/07/31 03:11:01;;;;;;;7.07;6.47;;;23.80;66.00;;;;;;5078892;28;20463;-68
2022/07/31 03:13:35;;;;;;;6.70;6.20;;;23.80;66.10;;;;;;5094764;28;20467;-68
2022/07/31 03:16:10;;;;;;;7.40;6.80;;;23.70;66.60;;;;;;5077570;28;20801;-68
2022/07/31 03:18:40;;;;;;;7.00;6.50;;;23.70;66.50;;;;;;5089542;28;20484;-68
2022/07/31 03:21:10;;;;;;;6.20;5.80;;;23.70;66.40;;;;;;5093939;28;20454;-68
2022/07/31 03:23:39;;;;;;;7.50;7.00;;;23.70;66.50;;;;;;5076803;28;20460;-68
2022/07/31 03:26:16;;;;;;;6.60;6.20;;;23.80;66.20;;;;;;5094425;28;20537;-68
2022/07/31 03:28:44;;;;;;;7.50;6.77;;;23.80;66.00;;;;;;5094061;28;20439;-68
2022/07/31 03:31:14;;;;;;;6.90;6.40;;;23.80;65.70;;;;;;5074721;28;20506;-68
2022/07/31 03:33:42;;;;;;;7.27;6.70;;;23.80;65.90;;;;;;5074322;28;21047;-68
2022/07/31 03:36:11;;;;;;;5.83;5.53;;;23.70;66.10;;;;;;5079940;28;20460;-68
2022/07/31 03:38:39;;;;;;;6.67;6.17;;;23.70;66.00;;;;;;5074380;28;20452;-68
2022/07/31 03:41:21;;;;;;;8.23;7.53;;;23.70;66.00;;;;;;5078468;28;20467;-68
2022/07/31 03:43:50;;;;;;;8.00;7.20;;;23.70;65.80;;;;;;5094566;28;20836;-68
2022/07/31 03:46:23;;;;;;;4.77;4.47;;;23.70;65.90;;;;;;5095160;28;20471;-68
2022/07/31 03:48:52;;;;;;;6.10;5.77;;;23.60;66.70;;;;;;5075894;28;20477;-68
2022/07/31 03:51:23;;;;;;;6.20;5.80;;;23.60;66.40;;;;;;5081862;28;20491;-68
2022/07/31 03:53:52;;;;;;;6.90;6.40;;;23.60;66.30;;;;;;5075657;28;20467;-68
2022/07/31 03:56:50;;;;;;;6.73;6.23;;;23.60;66.40;;;;;;5076742;28;21067;-68
2022/07/31 03:59:20;;;;;;;5.30;5.00;;;23.50;66.30;;;;;;5077706;28;20521;-68
2022/07/31 04:01:50;;;;;;;5.60;5.20;;;23.50;66.60;;;;;;5084453;28;20517;-68
2022/07/31 04:04:43;;;;;;;6.33;5.70;;;23.60;66.60;;;;;;5055954;28;20502;-68
2022/07/31 04:07:12;;;;;;;6.73;6.17;;;23.60;66.60;;;;;;5091446;28;20472;-68
2022/07/31 04:09:41;;;;;;;6.50;6.10;;;23.70;66.50;;;;;;5076216;28;20960;-68
2022/07/31 04:12:11;;;;;;;7.10;6.60;;;23.70;66.50;;;;;;5076318;28;20865;-68
2022/07/31 04:14:39;;;;;;;7.93;7.33;;;23.70;66.50;;;;;;5094710;28;20848;-68
2022/07/31 04:17:09;;;;;;;5.73;5.43;;;23.70;66.60;;;;;;5085419;28;20452;-68
2022/07/31 04:19:38;;;;;;;7.47;6.87;;;23.70;66.90;;;;;;5071992;28;20459;-68
2022/07/31 04:22:07;;;;;;;5.90;5.57;;;23.70;66.90;;;;;;5069144;28;20454;-68
2022/07/31 04:24:36;;;;;;;6.53;6.13;;;23.80;67.00;;;;;;5082336;28;20464;-68
2022/07/31 04:27:35;;;;;;;7.97;7.47;;;23.80;66.80;;;;;;5060129;28;20477;-68
2022/07/31 04:30:16;;;;;;;6.03;5.60;;;23.80;66.60;;;;;;5056462;28;20510;-68
2022/07/31 04:32:46;;;;;;;6.80;6.40;;;23.80;66.90;;;;;;5074496;28;20487;-68
2022/07/31 04:35:20;;;;;;;6.03;5.63;;;23.80;66.80;;;;;;5069597;28;20965;-68
2022/07/31 04:37:49;;;;;;;7.47;6.73;;;23.80;67.00;;;;;;5074526;28;20803;-68
2022/07/31 04:40:19;;;;;;;8.57;7.97;;;23.90;66.90;;;;;;5074677;28;20472;-68
2022/07/31 04:42:47;;;;;;;8.17;7.63;;;23.90;67.10;;;;;;5075988;28;20467;-67
2022/07/31 04:45:16;;;;;;;6.70;6.30;;;23.90;67.20;;;;;;5055676;28;20463;-67
2022/07/31 04:47:45;;;;;;;7.63;7.13;;;23.80;67.30;;;;;;5073429;28;20531;-67
2022/07/31 04:50:14;;;;;;;8.33;7.73;;;23.90;67.50;;;;;;5055489;28;20553;-69
2022/07/31 04:52:55;;;;;;;7.60;7.00;;;23.90;67.60;;;;;;5085524;28;20533;-67
2022/07/31 04:55:24;;;;;;;8.37;7.77;;;23.80;67.70;;;;;;5085720;28;20476;-66
2022/07/31 04:57:53;;;;;;;7.47;6.93;;;23.90;67.70;;;;;;5092897;28;20453;-67
2022/07/31 05:00:22;;;;;;;7.53;6.93;;;23.80;67.90;;;;;;5073172;28;20456;-67
2022/07/31 05:02:51;;;;;;;7.17;6.77;;;23.80;67.90;;;;;;5073212;28;20464;-67
2022/07/31 05:05:20;;;;;;;8.33;7.70;;;23.80;68.10;;;;;;5082987;28;21047;-67
2022/07/31 05:07:48;;;;;;;8.10;7.60;;;23.80;67.90;;;;;;5092986;28;20950;-67
2022/07/31 05:13:07;;;;;;;8.47;7.87;;;23.80;67.90;;;;;;5076012;28;20469;-67
2022/07/31 05:15:35;;;;;;;7.50;7.00;;;23.80;67.90;;;;;;5075323;28;20791;-67
2022/07/31 05:18:07;;;;;;;9.40;8.20;;;23.80;67.90;;;;;;5075069;28;20970;-67
2022/07/31 05:20:48;;;;;;;9.30;8.50;;;23.80;68.00;;;;;;5093681;28;20463;-67
2022/07/31 05:23:28;;;;;;;8.50;7.70;;;23.80;67.90;;;;;;5074346;28;20963;-66
2022/07/31 05:26:06;;;;;;;7.97;7.37;;;23.80;68.00;;;;;;5071760;28;20548;-66
2022/07/31 05:28:35;;;;;;;8.70;8.00;;;23.80;67.90;;;;;;5077749;28;20488;-66
2022/07/31 05:31:06;;;;;;;8.57;8.07;;;23.80;67.80;;;;;;5082614;28;20650;-67
2022/07/31 05:33:36;;;;;;;6.83;6.40;;;23.80;67.90;;;;;;5090299;28;20456;-67
2022/07/31 05:36:07;;;;;;;8.23;7.63;;;23.80;68.30;;;;;;5090632;28;20813;-66
2022/07/31 05:38:36;;;;;;;11.47;8.70;;;23.80;68.40;;;;;;5087433;28;20822;-66
2022/07/31 05:41:22;;;;;;;8.37;7.80;;;23.90;68.10;;;;;;5090672;28;20436;-66
2022/07/31 05:44:10;;;;;;;7.80;7.30;;;23.90;67.80;;;;;;5090231;28;21057;-67
2022/07/31 05:46:42;;;;;;;8.83;7.93;;;23.90;67.30;;;;;;5083457;28;20461;-66
2022/07/31 05:49:12;;;;;;;7.90;7.40;;;24.00;67.60;;;;;;5080255;28;20460;-66
2022/07/31 05:51:43;;;;;;;8.47;7.97;;;24.00;67.40;;;;;;5069247;28;20976;-67
2022/07/31 05:54:12;;;;;;;8.97;8.27;;;24.10;67.20;;;;;;5075308;28;21238;-67
2022/07/31 05:57:18;;;;;;;8.03;7.53;;;24.10;67.30;;;;;;5003695;28;20461;-67
2022/07/31 06:00:02;;;;;;;8.03;7.53;;;24.10;67.10;;;;;;4978549;28;20466;-67
2022/07/31 06:02:38;;;;;;;8.57;7.90;;;24.20;67.30;;;;;;4991674;28;20448;-67
2022/07/31 06:05:32;;;;;;;8.63;8.03;;;24.20;67.50;;;;;;4971443;28;20505;-66
2022/07/31 06:08:00;;;;;;;8.30;7.70;;;24.30;67.10;;;;;;5009187;28;20874;-66
2022/07/31 06:10:34;;;;;;;9.27;8.00;;;24.30;66.80;;;;;;5082481;28;20469;-66
2022/07/31 06:13:02;;;;;;;7.97;7.37;;;24.40;66.60;;;;;;5083353;28;20536;-67
2022/07/31 06:15:31;;;;;;;7.43;6.93;;;24.40;66.00;;;;;;5081231;28;20458;-67
2022/07/31 06:18:04;;;;;;;8.00;7.43;;;24.40;65.70;;;;;;5083368;28;20489;-67
2022/07/31 06:20:34;;;;;;;7.70;7.20;;;24.40;65.60;;;;;;5084604;28;20462;-67
2022/07/31 06:23:04;;;;;;;7.30;6.70;;;24.40;65.70;;;;;;5076845;28;20938;-67
2022/07/31 06:25:58;;;;;;;6.37;5.97;;;24.40;66.40;;;;;;5065983;28;20919;-67
2022/07/31 06:28:26;;;;;;;6.50;5.97;;;24.50;65.80;;;;;;5063761;28;20478;-67
2022/07/31 06:31:18;;;;;;;6.90;6.33;;;24.60;65.40;;;;;;5074254;28;20485;-67
2022/07/31 06:33:47;;;;;;;6.70;6.30;;;24.60;66.20;;;;;;5073769;28;20448;-67
2022/07/31 06:36:20;;;;;;;7.57;7.00;;;24.60;66.40;;;;;;5075392;28;20482;-67
2022/07/31 06:38:58;;;;;;;6.80;6.10;;;24.60;66.30;;;;;;5072705;28;20959;-67
2022/07/31 06:41:46;;;;;;;7.00;6.60;;;24.70;66.30;;;;;;5091116;28;20442;-67
2022/07/31 06:44:34;;;;;;;6.50;5.90;;;24.70;66.40;;;;;;5086729;28;20578;-67
2022/07/31 06:47:32;;;;;;;7.13;6.63;;;24.90;65.90;;;;;;5085594;28;20476;-67
2022/07/31 06:50:35;;;;;;;6.00;5.60;;;24.80;65.60;;;;;;5064176;28;20802;-67
2022/07/31 06:53:18;;;;;;;6.10;5.60;;;24.90;64.40;;;;;;5078712;28;20490;-67
2022/07/31 06:55:47;;;;;;;6.73;6.20;;;24.90;64.60;;;;;;5077505;28;20543;-67
2022/07/31 06:58:15;;;;;;;5.83;5.33;;;25.00;64.80;;;;;;5085572;28;20458;-72
2022/07/31 07:00:43;;;;;;;9.67;6.00;;;25.00;64.50;;;;;;5070527;28;20521;-67
2022/07/31 07:03:11;;;;;;;5.70;5.30;;;25.10;64.40;;;;;;5084128;28;20806;-67
2022/07/31 07:05:40;;;;;;;5.43;4.97;;;25.20;64.00;;;;;;5067680;28;20474;-67
2022/07/31 07:08:12;;;;;;;5.83;5.33;;;25.30;63.80;;;;;;5066714;28;20474;-67
2022/07/31 07:10:43;;;;;;;5.33;4.90;;;25.30;63.50;;;;;;5068534;28;20463;-67
2022/07/31 07:13:20;;;;;;;5.87;5.47;;;25.30;63.40;;;;;;5067218;28;20982;-67
2022/07/31 07:15:50;;;;;;;5.10;4.70;;;25.30;63.40;;;;;;5067989;28;20540;-67
2022/07/31 07:18:21;;;;;;;5.47;4.77;;;25.30;63.40;;;;;;5067985;28;20551;-67
2022/07/31 07:20:52;;;;;;;5.17;4.70;;;25.30;63.60;;;;;;5067551;28;20888;-67
2022/07/31 07:23:22;;;;;;;5.40;4.97;;;25.30;63.50;;;;;;5082610;28;20562;-67
2022/07/31 07:26:12;;;;;;;4.87;4.47;;;25.30;63.40;;;;;;5071074;28;20802;-67
2022/07/31 07:28:40;;;;;;;4.60;4.20;;;25.30;62.90;;;;;;5071709;28;20477;-67
2022/07/31 07:31:09;;;;;;;4.00;3.70;;;25.40;63.00;;;;;;5068261;28;20470;-66
2022/07/31 07:33:38;;;;;;;4.90;4.50;;;25.40;62.60;;;;;;5069820;28;20471;-67
2022/07/31 07:36:16;;;;;;;4.93;4.30;;;25.40;62.80;;;;;;5071946;28;20551;-67
2022/07/31 07:39:09;;;;;;;4.33;4.03;;;25.50;62.80;;;;;;5068387;28;20471;-67
2022/07/31 07:41:40;;;;;;;4.47;4.20;;;25.50;62.80;;;;;;5070625;28;20471;-67
2022/07/31 07:44:08;;;;;;;5.00;4.70;;;25.50;62.60;;;;;;5073428;28;20583;-67
2022/07/31 07:46:37;;;;;;;3.97;3.77;;;25.50;62.20;;;;;;5071829;28;20449;-67
2022/07/31 07:49:07;;;;;;;9.20;3.77;;;25.70;62.30;;;;;;5069605;28;20857;-67
2022/07/31 07:51:41;;;;;;;4.20;3.90;;;25.70;62.00;;;;;;5088421;28;21005;-66
2022/07/31 07:54:59;;;;;;;4.20;3.90;;;25.70;61.70;;;;;;5068469;28;20457;-67
2022/07/31 07:57:47;;;;;;;4.97;4.57;;;25.70;61.80;;;;;;5070049;28;20464;-67
2022/07/31 08:00:16;;;;;;;4.47;4.17;;;25.70;62.00;;;;;;5071271;28;20513;-67
2022/07/31 08:02:44;;;;;;;4.90;4.50;;;25.80;62.20;;;;;;5071205;28;20959;-67
2022/07/31 08:05:35;;;;;;;4.33;4.13;;;25.80;61.70;;;;;;5078737;28;20483;-67
2022/07/31 08:08:04;;;;;;;5.60;4.00;;;25.80;61.80;;;;;;5075730;28;20506;-67
2022/07/31 08:10:47;;;;;;;9.53;3.70;;;25.90;61.50;;;;;;5073089;28;20462;-66
2022/07/31 08:13:40;;;;;;;4.20;3.40;;;25.90;61.60;;;;;;5077816;28;20476;-67
2022/07/31 08:16:26;;;;;;;3.80;3.60;;;26.00;61.40;;;;;;5080484;28;20506;-68
2022/07/31 08:18:57;;;;;;;3.77;3.57;;;26.10;61.30;;;;;;5060857;28;20514;-68
2022/07/31 08:21:26;;;;;;;4.80;4.40;;;26.10;61.40;;;;;;5071517;28;20458;-66
2022/07/31 08:23:55;;;;;;;3.80;3.60;;;26.10;61.20;;;;;;5079893;28;20468;-66
2022/07/31 08:26:24;;;;;;;3.97;3.77;;;26.10;61.30;;;;;;5073681;28;20464;-67
2022/07/31 08:28:57;;;;;;;3.93;3.70;;;26.10;61.30;;;;;;5095564;28;21333;-67
2022/07/31 08:31:32;;;;;;;3.77;3.43;;;26.20;61.40;;;;;;5076783;28;20458;-67
2022/07/31 08:34:26;;;;;;;3.80;3.60;;;26.20;61.30;;;;;;5059602;28;20484;-67
2022/07/31 08:36:59;;;;;;;3.37;3.10;;;26.40;61.10;;;;;;5081265;28;20469;-67
2022/07/31 08:39:49;;;;;;;3.50;3.30;;;26.40;61.20;;;;;;5069554;28;20567;-67
2022/07/31 08:42:18;;;;;;;4.23;3.90;;;26.40;60.70;;;;;;5072194;28;20461;-67
2022/07/31 08:44:48;;;;;;;3.73;3.50;;;26.40;60.90;;;;;;5072959;28;21107;-67
2022/07/31 08:47:22;;;;;;;3.60;3.40;;;26.50;60.60;;;;;;5077600;28;20588;-67
2022/07/31 08:49:52;;;;;;;6.50;2.90;;;26.50;60.40;;;;;;5074964;28;20995;-67
2022/07/31 08:52:23;;;;;;;4.03;3.83;;;26.60;60.70;;;;;;5061698;28;20852;-67
2022/07/31 08:55:06;;;;;;;3.53;3.33;;;26.60;60.50;;;;;;5066296;28;20462;-67
2022/07/31 08:57:35;;;;;;;3.90;3.70;;;26.60;60.20;;;;;;5075254;28;20474;-67
2022/07/31 09:00:07;;;;;;;3.90;3.70;;;26.70;60.00;;;;;;5075364;28;20546;-67
2022/07/31 09:02:37;;;;;;;5.53;4.00;;;26.70;60.40;;;;;;5086556;28;20474;-67
2022/07/31 09:05:25;;;;;;;4.20;3.90;;;26.70;60.10;;;;;;5083529;28;20561;-67
2022/07/31 09:08:09;;;;;;;3.90;3.60;;;26.70;60.00;;;;;;5074881;28;20462;-67
2022/07/31 09:10:42;;;;;;;3.73;3.50;;;26.70;59.50;;;;;;5075380;28;20477;-67
2022/07/31 09:13:18;;;;;;;3.70;3.40;;;26.80;60.10;;;;;;5074723;28;21076;-67
2022/07/31 09:15:51;;;;;;;3.93;3.63;;;26.90;60.00;;;;;;5075189;28;20450;-67
2022/07/31 09:18:23;;;;;;;4.13;3.53;;;26.90;59.60;;;;;;5075401;28;20463;-67
2022/07/31 09:21:11;;;;;;;4.33;3.23;;;26.90;59.80;;;;;;5081256;28;20476;-67
2022/07/31 09:23:46;;;;;;;3.50;3.30;;;26.80;59.70;;;;;;5080296;28;20538;-67
2022/07/31 09:26:15;;;;;;;3.53;3.30;;;26.90;59.50;;;;;;5081386;28;20461;-67
2022/07/31 09:28:45;;;;;;;3.10;2.90;;;26.90;59.20;;;;;;5078388;28;20476;-67
2022/07/31 09:31:15;;;;;;;3.90;3.60;;;26.90;59.50;;;;;;5081135;28;20975;-67
2022/07/31 09:33:57;;;;;;;3.93;3.60;;;26.90;59.70;;;;;;5068689;28;20564;-67
2022/07/31 09:36:54;;;;;;;5.10;3.87;;;27.00;59.50;;;;;;5088983;28;20502;-66
2022/07/31 09:39:56;;;;;;;2.70;2.60;;;27.00;58.80;;;;;;5057117;28;20466;-66
2022/07/31 09:42:47;;;;;;;3.37;3.07;;;27.00;59.50;;;;;;5091270;28;20437;-65
2022/07/31 09:45:25;;;;;;;3.30;3.10;;;27.10;59.50;;;;;;5072294;28;20549;-66
2022/07/31 09:48:11;;;;;;;3.00;2.90;;;27.20;59.20;;;;;;5062303;28;20561;-66
2022/07/31 09:50:54;;;;;;;3.83;3.63;;;27.20;58.70;;;;;;5086590;28;20501;-65
2022/07/31 09:53:23;;;;;;;3.23;3.03;;;27.20;57.80;;;;;;5080647;28;20943;-66
2022/07/31 09:56:00;;;;;;;3.87;3.67;;;27.20;58.70;;;;;;5082379;28;20453;-66
2022/07/31 09:58:28;;;;;;;3.07;2.87;;;27.30;58.70;;;;;;5089135;28;20510;-66
2022/07/31 10:00:57;;;;;;;3.27;3.00;;;27.30;58.00;;;;;;5090146;28;20496;-65
2022/07/31 10:03:27;;;;;;;3.57;3.37;;;27.30;57.40;;;;;;5070620;28;20456;-67
2022/07/31 10:05:57;;;;;;;3.53;3.23;;;27.30;57.40;;;;;;5087326;28;20545;-67
2022/07/31 10:08:29;;;;;;;3.13;2.93;;;27.40;57.50;;;;;;5077911;28;20463;-67
2022/07/31 10:11:20;;;;;;;2.93;2.73;;;27.40;57.10;;;;;;5078699;28;20462;-67
2022/07/31 10:13:59;;;;;;;3.93;3.33;;;27.40;57.90;;;;;;5080600;28;20625;-67
2022/07/31 10:16:32;;;;;;;3.73;2.87;;;27.40;56.90;;;;;;5090247;28;20541;-67
2022/07/31 10:19:22;;;;;;;3.90;3.10;;;27.40;58.00;;;;;;5086679;28;20565;-68
2022/07/31 10:22:04;;;;;;;2.80;2.60;;;27.50;57.50;;;;;;5075552;28;20469;-67
2022/07/31 10:24:41;;;;;;;2.60;2.40;;;27.50;56.50;;;;;;5090066;28;20457;-67
2022/07/31 10:27:10;;;;;;;2.70;2.37;;;27.50;54.60;;;;;;5089872;28;20453;-67
2022/07/31 10:29:42;;;;;;;2.63;2.43;;;27.40;54.40;;;;;;5080537;28;20467;-67
2022/07/31 10:32:10;;;;;;;2.77;2.50;;;27.40;55.50;;;;;;5091504;28;20488;-67
2022/07/31 10:34:58;;;;;;;2.37;2.27;;;27.50;53.70;;;;;;5081218;28;21405;-68
2022/07/31 10:37:58;;;;;;;2.53;2.10;;;27.40;54.20;;;;;;5070025;28;20824;-68
2022/07/31 10:40:58;;;;;;;2.83;2.00;;;27.30;54.60;;;;;;5077124;28;20463;-68
2022/07/31 10:43:30;;;;;;;2.87;2.47;;;27.20;52.40;;;;;;5089237;28;20462;-69
2022/07/31 10:46:28;;;;;;;2.53;2.33;;;27.10;53.50;;;;;;5088373;28;20456;-68
2022/07/31 10:49:15;;;;;;;1.70;1.60;;;27.00;53.10;;;;;;5084683;28;20814;-70
2022/07/31 10:52:25;;;;;;;2.30;2.17;;;26.90;53.10;;;;;;5079671;28;20515;-74
2022/07/31 10:55:02;;;;;;;2.83;2.30;;;26.90;53.20;;;;;;5077094;28;20450;-73
2022/07/31 10:57:45;;;;;;;3.30;2.40;;;27.00;54.80;;;;;;5079452;28;20453;-77
2022/07/31 11:00:44;;;;;;;2.27;2.17;;;27.10;55.90;;;;;;5084550;28;20887;-77
2022/07/31 11:03:39;;;;;;;4.03;2.50;;;27.20;56.10;;;;;;5071127;28;20471;-72
2022/07/31 11:06:39;;;;;;;3.27;2.80;;;27.30;55.10;;;;;;5078760;28;20528;-74
2022/07/31 11:09:29;;;;;;;2.10;2.00;;;27.40;56.10;;;;;;5093537;28;20454;-75
2022/07/31 11:12:18;;;;;;;4.30;2.30;;;27.50;55.60;;;;;;5073480;28;20460;-75
2022/07/31 11:15:23;;;;;;;6.30;3.33;;;27.50;55.60;;;;;;5077027;28;20451;-72
2022/07/31 11:18:15;;;;;;;3.90;2.90;;;27.40;56.50;;;;;;5097012;28;20440;-69
2022/07/31 11:21:09;;;;;;;3.17;2.47;;;27.50;55.50;;;;;;5092568;28;20462;-70
2022/07/31 11:23:57;;;;;;;12.00;3.27;;;27.60;56.60;;;;;;5095218;28;20577;-70
2022/07/31 11:26:33;;;;;;;5.53;2.73;;;27.40;56.20;;;;;;5092699;28;20478;-67
2022/07/31 11:29:10;;;;;;;7.13;2.53;;;27.40;56.40;;;;;;5094374;28;20467;-67
2022/07/31 11:32:12;;;;;;;2.40;2.17;;;27.50;55.50;;;;;;5091238;28;20471;-68
2022/07/31 11:34:48;;;;;;;2.57;2.20;;;27.40;55.40;;;;;;5092409;28;20956;-69
2022/07/31 11:37:18;;;;;;;3.93;2.40;;;27.40;55.10;;;;;;5092754;28;20535;-69
2022/07/31 11:39:46;;;;;;;2.10;2.00;;;27.40;54.50;;;;;;5092099;28;20468;-68
2022/07/31 11:42:21;;;;;;;2.70;1.87;;;27.50;54.50;;;;;;5093491;28;20933;-68
2022/07/31 11:45:02;;;;;;;1.83;1.70;;;27.50;53.30;;;;;;5085437;28;20809;-69
2022/07/31 11:47:38;;;;;;;2.20;2.10;;;27.40;52.30;;;;;;5081753;28;20461;-70
2022/07/31 11:50:29;;;;;;;2.10;2.00;;;27.50;52.10;;;;;;5096163;28;20470;-69
2022/07/31 11:53:07;;;;;;;2.17;2.07;;;27.60;52.00;;;;;;5090091;28;20488;-71
2022/07/31 11:55:46;;;;;;;4.73;3.10;;;27.60;52.70;;;;;;5087941;28;21194;-68
2022/07/31 11:58:16;;;;;;;3.60;2.47;;;27.60;53.30;;;;;;5088525;28;20927;-70
2022/07/31 12:00:52;;;;;;;1.60;1.50;;;27.60;53.20;;;;;;5091419;28;20453;-70
2022/07/31 12:03:22;;;;;;;2.33;2.23;;;27.60;52.90;;;;;;5090792;28;21138;-68
2022/07/31 12:05:52;;;;;;;1.93;1.70;;;27.70;52.50;;;;;;5077511;28;20539;-68
2022/07/31 12:08:21;;;;;;;2.43;2.07;;;27.80;52.50;;;;;;5092499;28;20941;-68
2022/07/31 12:10:52;;;;;;;1.80;1.60;;;27.80;52.30;;;;;;5091045;28;20529;-68
2022/07/31 12:13:23;;;;;;;1.87;1.77;;;27.70;52.20;;;;;;5089852;28;20529;-68
2022/07/31 12:15:56;;;;;;;2.00;1.90;;;27.70;52.30;;;;;;5094551;28;20456;-68
2022/07/31 12:18:24;;;;;;;2.23;2.13;;;27.80;52.20;;;;;;5092546;28;20508;-68
2022/07/31 12:20:55;;;;;;;2.60;2.40;;;27.80;52.30;;;;;;5084547;28;20460;-68
2022/07/31 12:23:25;;;;;;;2.07;1.93;;;27.90;52.70;;;;;;5087786;28;20449;-68
2022/07/31 12:26:10;;;;;;;3.80;2.13;;;27.90;53.60;;;;;;5092893;28;20453;-70
2022/07/31 12:28:40;;;;;;;2.27;2.07;;;27.90;52.70;;;;;;5091903;28;20452;-69
2022/07/31 12:31:08;;;;;;;2.43;2.23;;;27.90;52.50;;;;;;5084440;28;20505;-69
2022/07/31 12:33:41;;;;;;;1.70;1.60;;;27.90;52.70;;;;;;5092253;28;20818;-68
2022/07/31 12:36:13;;;;;;;2.63;2.40;;;28.00;53.00;;;;;;5090987;28;20462;-72
2022/07/31 12:38:42;;;;;;;2.87;2.30;;;28.00;52.70;;;;;;5090635;28;20953;-68
2022/07/31 12:41:15;;;;;;;2.67;2.47;;;28.00;53.40;;;;;;5088117;28;20544;-68
2022/07/31 12:43:45;;;;;;;1.97;1.77;;;28.00;54.20;;;;;;5073538;28;20482;-68
2022/07/31 12:46:21;;;;;;;2.47;2.33;;;28.00;53.70;;;;;;5093395;28;20458;-68
2022/07/31 12:48:50;;;;;;;2.33;2.13;;;28.00;53.20;;;;;;5094097;28;20486;-68
2022/07/31 12:51:19;;;;;;;3.13;2.30;;;28.00;53.40;;;;;;5092887;28;20536;-68
2022/07/31 12:54:08;;;;;;;2.13;2.00;;;28.00;54.70;;;;;;5092241;28;20455;-70
2022/07/31 12:56:37;;;;;;;4.40;2.03;;;28.00;54.10;;;;;;5093961;28;20969;-68
2022/07/31 12:59:08;;;;;;;2.90;2.70;;;28.00;53.00;;;;;;5092472;28;20999;-68
2022/07/31 13:01:36;;;;;;;2.27;2.07;;;28.00;52.80;;;;;;5093594;28;20456;-67
2022/07/31 13:04:05;;;;;;;2.20;1.97;;;28.00;52.80;;;;;;5093532;28;20492;-67
2022/07/31 13:06:47;;;;;;;2.60;2.00;;;28.00;52.70;;;;;;5093436;28;20447;-67
2022/07/31 13:09:15;;;;;;;2.37;2.27;;;28.00;52.50;;;;;;5075492;28;20457;-68
2022/07/31 13:11:44;;;;;;;2.50;2.40;;;28.00;52.70;;;;;;5091326;28;20559;-70
2022/07/31 13:14:16;;;;;;;2.40;2.30;;;28.10;53.30;;;;;;5093220;28;20437;-68
2022/07/31 13:16:46;;;;;;;2.10;2.00;;;28.10;52.70;;;;;;5092823;28;20526;-68
2022/07/31 13:19:14;;;;;;;2.13;2.03;;;28.00;52.30;;;;;;5093839;28;20933;-68
2022/07/31 13:21:43;;;;;;;3.30;2.77;;;28.10;52.40;;;;;;5078975;28;20953;-68
2022/07/31 13:24:17;;;;;;;4.20;2.33;;;28.10;53.90;;;;;;5092509;28;20443;-68
2022/07/31 13:26:46;;;;;;;2.37;2.27;;;28.10;52.90;;;;;;5091966;28;20503;-68
2022/07/31 13:29:16;;;;;;;2.30;2.20;;;28.10;52.60;;;;;;5090488;28;20455;-68
2022/07/31 13:31:45;;;;;;;2.60;2.40;;;28.10;52.20;;;;;;5091980;28;20479;-68